Time;durP1;ratioP1;P1;durP2;ratioP2;P2;SDS_P1;SDS_P2;PMS_P1;PMS_P2;Temp;Humidity;BMP_temperature;BMP_pressure;BME280_temperature;BME280_humidity;BME280_pressure;Samples;Min_cycle;Max_cycle;Signal;HPM_P1;HPM_P2
2022/10/25 00:02:24;;;;;;;0.50;0.50;;;;;;;;;;5051685;27;87886;-54
2022/10/25 00:04:52;;;;;;;0.67;0.67;;;;;;;;;;5042303;27;87028;-53
2022/10/25 00:07:22;;;;;;;0.70;0.70;;;;;;;;;;5054180;27;86261;-52
2022/10/25 00:09:50;;;;;;;0.50;0.50;;;;;;;;;;5047600;27;87108;-53
2022/10/25 00:12:18;;;;;;;1.13;0.70;;;;;;;;;;5040810;27;87096;-54
2022/10/25 00:14:47;;;;;;;1.27;0.70;;;;;;;;;;5047357;27;87992;-53
2022/10/25 00:17:15;;;;;;;1.77;0.90;;;;;;;;;;5048992;27;89102;-52
2022/10/25 00:19:43;;;;;;;1.73;0.77;;;;;;;;;;5059393;27;88305;-53
2022/10/25 00:22:11;;;;;;;2.67;0.77;;;;;;;;;;5045635;27;87929;-54
2022/10/25 00:24:41;;;;;;;1.63;0.70;;;;;;;;;;5042937;27;87158;-53
2022/10/25 00:27:09;;;;;;;3.93;0.83;;;;;;;;;;5054599;27;87039;-53
2022/10/25 00:29:37;;;;;;;1.43;0.60;;;;;;;;;;5060986;27;88768;-53
2022/10/25 00:32:06;;;;;;;0.90;0.80;;;;;;;;;;5058940;27;87706;-53
2022/10/25 00:34:34;;;;;;;0.40;0.40;;;;;;;;;;5056425;27;87095;-53
2022/10/25 00:37:02;;;;;;;1.17;0.97;;;;;;;;;;5054665;27;87752;-53
2022/10/25 00:39:31;;;;;;;1.20;0.77;;;;;;;;;;5055050;27;88680;-53
2022/10/25 00:42:01;;;;;;;1.53;0.80;;;;;;;;;;5053345;27;89594;-54
2022/10/25 00:45:00;;;;;;;1.40;0.90;;;;;;;;;;5044910;27;87216;-53
2022/10/25 00:47:43;;;;;;;1.23;0.80;;;;;;;;;;4984180;28;87657;-53
2022/10/25 00:50:17;;;;;;;0.73;0.53;;;;;;;;;;5051007;27;90678;-53
2022/10/25 00:52:46;;;;;;;0.53;0.53;;;;;;;;;;5040956;27;87512;-53
2022/10/25 00:55:16;;;;;;;2.23;1.10;;;;;;;;;;5040800;27;87162;-52
2022/10/25 00:57:47;;;;;;;1.43;0.67;;;;;;;;;;5041022;28;86318;-53
2022/10/25 01:00:16;;;;;;;1.03;0.63;;;;;;;;;;5055686;27;89266;-54
2022/10/25 01:02:45;;;;;;;4.13;1.17;;;;;;;;;;5056687;27;90285;-53
2022/10/25 01:05:13;;;;;;;0.70;0.60;;;;;;;;;;5055400;27;87968;-54
2022/10/25 01:07:42;;;;;;;0.77;0.57;;;;;;;;;;5042653;27;87128;-52
2022/10/25 01:10:10;;;;;;;1.60;0.80;;;;;;;;;;5060699;27;88425;-52
2022/10/25 01:12:38;;;;;;;0.90;0.43;;;;;;;;;;5057033;27;88679;-52
2022/10/25 01:15:09;;;;;;;2.23;0.73;;;;;;;;;;5045580;27;87162;-54
2022/10/25 01:17:39;;;;;;;2.17;0.60;;;;;;;;;;5046030;27;87071;-53
2022/10/25 01:20:16;;;;;;;1.20;0.60;;;;;;;;;;5055789;27;88067;-52
2022/10/25 01:22:46;;;;;;;8.17;1.73;;;;;;;;;;5043068;27;89077;-53
2022/10/25 01:25:39;;;;;;;0.80;0.43;;;;;;;;;;5046416;27;87116;-54
2022/10/25 01:28:08;;;;;;;1.53;0.77;;;;;;;;;;5026555;27;86915;-53
2022/10/25 01:31:01;;;;;;;1.30;0.67;;;;;;;;;;5052139;27;89094;-53
2022/10/25 01:33:31;;;;;;;1.70;0.50;;;;;;;;;;5046360;27;89547;-52
2022/10/25 01:36:01;;;;;;;2.10;0.77;;;;;;;;;;5043449;27;87013;-52
2022/10/25 01:38:33;;;;;;;0.90;0.50;;;;;;;;;;5040515;27;86977;-54
2022/10/25 01:41:08;;;;;;;1.43;1.30;;;;;;;;;;5039715;27;87181;-53
2022/10/25 01:43:38;;;;;;;0.90;0.70;;;;;;;;;;5039966;27;88177;-52
2022/10/25 01:46:09;;;;;;;0.60;0.60;;;;;;;;;;5045249;27;87047;-53
2022/10/25 01:48:37;;;;;;;1.00;0.80;;;;;;;;;;5049234;27;86313;-52
2022/10/25 01:51:06;;;;;;;0.90;0.87;;;;;;;;;;5040723;27;88547;-54
2022/10/25 01:53:34;;;;;;;3.40;1.00;;;;;;;;;;5040364;27;88942;-53
2022/10/25 01:56:03;;;;;;;2.40;0.63;;;;;;;;;;5039718;27;87983;-53
2022/10/25 01:58:33;;;;;;;1.60;0.77;;;;;;;;;;5039780;27;87148;-52
2022/10/25 02:01:03;;;;;;;0.73;0.60;;;;;;;;;;5056170;27;87926;-53
2022/10/25 02:03:34;;;;;;;2.93;0.87;;;;;;;;;;5050956;27;87749;-53
2022/10/25 02:06:07;;;;;;;2.83;0.93;;;;;;;;;;5050883;27;87124;-53
2022/10/25 02:08:35;;;;;;;1.33;0.60;;;;;;;;;;5063256;27;87150;-52
2022/10/25 02:11:06;;;;;;;1.27;1.03;;;;;;;;;;5049779;27;87840;-53
2022/10/25 02:13:37;;;;;;;3.77;1.20;;;;;;;;;;5055616;27;87599;-53
2022/10/25 02:16:06;;;;;;;1.83;1.13;;;;;;;;;;5055653;27;87978;-54
2022/10/25 02:18:36;;;;;;;3.53;1.53;;;;;;;;;;5056519;27;87081;-53
2022/10/25 02:21:04;;;;;;;0.90;0.70;;;;;;;;;;5045446;27;89238;-53
2022/10/25 02:23:32;;;;;;;1.90;0.80;;;;;;;;;;5043740;27;89154;-53
2022/10/25 02:26:01;;;;;;;2.10;0.80;;;;;;;;;;5059159;27;86863;-54
2022/10/25 02:28:29;;;;;;;0.90;0.90;;;;;;;;;;5062522;27;87047;-53
2022/10/25 02:30:57;;;;;;;0.80;0.80;;;;;;;;;;5058081;27;88075;-54
2022/10/25 02:33:26;;;;;;;1.60;0.80;;;;;;;;;;5059523;27;88777;-53
2022/10/25 02:36:09;;;;;;;0.57;0.57;;;;;;;;;;5052377;27;87049;-54
2022/10/25 02:38:37;;;;;;;1.53;0.87;;;;;;;;;;5055999;27;86369;-54
2022/10/25 02:41:06;;;;;;;1.53;0.80;;;;;;;;;;5061421;27;88195;-54
2022/10/25 02:43:34;;;;;;;0.93;0.80;;;;;;;;;;5062535;27;87032;-54
2022/10/25 02:46:05;;;;;;;2.50;0.80;;;;;;;;;;5057744;27;89667;-54
2022/10/25 02:48:33;;;;;;;1.80;1.20;;;;;;;;;;5062956;27;87047;-54
2022/10/25 02:51:02;;;;;;;1.63;1.00;;;;;;;;;;5049187;27;88609;-53
2022/10/25 02:53:31;;;;;;;1.90;1.00;;;;;;;;;;5054205;27;88786;-53
2022/10/25 02:56:00;;;;;;;1.50;1.10;;;;;;;;;;5054896;27;87052;-54
2022/10/25 02:58:30;;;;;;;1.70;0.73;;;;;;;;;;5056732;27;87032;-54
2022/10/25 03:00:58;;;;;;;0.73;0.60;;;;;;;;;;5047332;27;89000;-53
2022/10/25 03:03:26;;;;;;;1.50;0.83;;;;;;;;;;5049526;27;87660;-53
2022/10/25 03:05:55;;;;;;;1.17;1.00;;;;;;;;;;5044179;27;87011;-53
2022/10/25 03:08:23;;;;;;;1.00;0.80;;;;;;;;;;5047860;27;86983;-54
2022/10/25 03:14:25;;;;;;;3.50;0.93;;;;;;;;;;5028771;22;89028;-53
2022/10/25 03:16:56;;;;;;;0.73;0.67;;;;;;;;;;5046686;27;87163;-53
2022/10/25 03:19:24;;;;;;;0.60;0.60;;;;;;;;;;5056897;27;87097;-53
2022/10/25 03:21:53;;;;;;;1.07;0.80;;;;;;;;;;5045729;27;88794;-54
2022/10/25 03:24:21;;;;;;;4.10;1.20;;;;;;;;;;5043383;27;89216;-53
2022/10/25 03:26:49;;;;;;;1.23;1.10;;;;;;;;;;5056909;27;87073;-53
2022/10/25 03:29:17;;;;;;;1.87;0.97;;;;;;;;;;5055344;27;87393;-54
2022/10/25 03:31:47;;;;;;;2.77;0.77;;;;;;;;;;5053902;27;89133;-53
2022/10/25 03:34:15;;;;;;;2.83;1.00;;;;;;;;;;5059083;27;88782;-54
2022/10/25 03:36:44;;;;;;;0.80;0.80;;;;;;;;;;5058515;27;87883;-54
2022/10/25 03:39:12;;;;;;;1.33;1.20;;;;;;;;;;5054979;27;86994;-54
2022/10/25 03:41:40;;;;;;;3.00;1.13;;;;;;;;;;5049814;27;87807;-53
2022/10/25 03:44:08;;;;;;;0.97;0.87;;;;;;;;;;5061746;27;88774;-54
2022/10/25 03:46:37;;;;;;;0.93;0.83;;;;;;;;;;5058761;27;87205;-53
2022/10/25 03:49:06;;;;;;;2.33;0.97;;;;;;;;;;5067706;27;87564;-54
2022/10/25 03:51:35;;;;;;;7.17;1.20;;;;;;;;;;5056786;27;89244;-53
2022/10/25 03:54:03;;;;;;;0.90;0.80;;;;;;;;;;5061045;27;87539;-54
2022/10/25 03:56:31;;;;;;;1.97;0.90;;;;;;;;;;5058922;27;87124;-54
2022/10/25 03:58:59;;;;;;;1.20;0.90;;;;;;;;;;5052052;27;87000;-53
2022/10/25 04:01:28;;;;;;;1.30;1.00;;;;;;;;;;5058517;27;88913;-54
2022/10/25 04:03:56;;;;;;;2.23;0.70;;;;;;;;;;5048045;27;88693;-53
2022/10/25 04:06:26;;;;;;;0.50;0.50;;;;;;;;;;5040361;27;87860;-53
2022/10/25 04:08:54;;;;;;;1.07;0.97;;;;;;;;;;5051691;27;87773;-53
2022/10/25 04:11:22;;;;;;;2.57;1.10;;;;;;;;;;5057928;27;88480;-53
2022/10/25 04:13:51;;;;;;;1.43;1.20;;;;;;;;;;5054685;27;87990;-54
2022/10/25 04:16:19;;;;;;;2.47;1.00;;;;;;;;;;5048835;27;87158;-54
2022/10/25 04:18:47;;;;;;;3.97;0.90;;;;;;;;;;5057893;27;86296;-53
2022/10/25 04:21:15;;;;;;;1.37;0.90;;;;;;;;;;5053888;27;87907;-54
2022/10/25 04:23:45;;;;;;;1.60;1.00;;;;;;;;;;5048950;27;88932;-53
2022/10/25 04:26:16;;;;;;;2.00;0.87;;;;;;;;;;5048442;27;88852;-53
2022/10/25 04:28:44;;;;;;;2.40;1.43;;;;;;;;;;5062520;27;86951;-53
2022/10/25 04:31:13;;;;;;;2.07;1.40;;;;;;;;;;5058115;27;88968;-52
2022/10/25 04:33:41;;;;;;;0.73;0.57;;;;;;;;;;5061215;27;88195;-54
2022/10/25 04:36:15;;;;;;;1.23;1.00;;;;;;;;;;5057871;27;86999;-53
2022/10/25 04:38:43;;;;;;;1.60;1.07;;;;;;;;;;5058743;27;87965;-52
2022/10/25 04:41:13;;;;;;;2.07;1.00;;;;;;;;;;5061081;27;87903;-53
2022/10/25 04:43:41;;;;;;;2.10;0.90;;;;;;;;;;5061731;27;88813;-53
2022/10/25 04:46:09;;;;;;;0.73;0.70;;;;;;;;;;5057017;27;87409;-53
2022/10/25 04:48:37;;;;;;;0.80;0.80;;;;;;;;;;5057756;27;86921;-53
2022/10/25 04:51:06;;;;;;;0.67;0.67;;;;;;;;;;5040981;27;90100;-54
2022/10/25 04:53:34;;;;;;;0.90;0.80;;;;;;;;;;5054118;27;87071;-53
2022/10/25 04:56:03;;;;;;;0.70;0.70;;;;;;;;;;5056260;27;86966;-53
2022/10/25 04:58:32;;;;;;;1.53;0.70;;;;;;;;;;5059567;27;86938;-54
2022/10/25 05:01:01;;;;;;;1.03;0.50;;;;;;;;;;5045385;27;87132;-53
2022/10/25 05:03:29;;;;;;;1.27;1.13;;;;;;;;;;5057549;27;89010;-53
2022/10/25 05:06:04;;;;;;;1.83;0.80;;;;;;;;;;5041861;27;86956;-53
2022/10/25 05:08:33;;;;;;;0.77;0.77;;;;;;;;;;5047445;27;86274;-53
2022/10/25 05:11:01;;;;;;;2.00;0.97;;;;;;;;;;5043025;27;87135;-53
2022/10/25 05:13:33;;;;;;;0.83;0.60;;;;;;;;;;5042986;27;88665;-55
2022/10/25 05:16:01;;;;;;;1.73;1.10;;;;;;;;;;5046908;27;89227;-53
2022/10/25 05:18:29;;;;;;;1.00;0.90;;;;;;;;;;5061353;27;87077;-53
2022/10/25 05:20:58;;;;;;;0.70;0.67;;;;;;;;;;5059699;27;88754;-53
2022/10/25 05:23:26;;;;;;;1.20;0.70;;;;;;;;;;5061465;27;87571;-55
2022/10/25 05:26:00;;;;;;;2.37;1.00;;;;;;;;;;5055425;27;87080;-52
2022/10/25 05:28:29;;;;;;;2.90;0.90;;;;;;;;;;5054543;27;86937;-52
2022/10/25 05:30:58;;;;;;;0.97;0.83;;;;;;;;;;5046820;27;89024;-52
2022/10/25 05:33:27;;;;;;;1.97;1.47;;;;;;;;;;5050089;27;87657;-55
2022/10/25 05:35:55;;;;;;;2.63;0.97;;;;;;;;;;5055668;27;87100;-55
2022/10/25 05:38:23;;;;;;;1.13;0.70;;;;;;;;;;5042445;27;86798;-54
2022/10/25 05:40:54;;;;;;;1.33;0.90;;;;;;;;;;5052715;27;89879;-55
2022/10/25 05:43:23;;;;;;;2.00;0.83;;;;;;;;;;5064486;27;89770;-54
2022/10/25 05:45:51;;;;;;;1.10;1.00;;;;;;;;;;5048386;27;86975;-54
2022/10/25 05:48:21;;;;;;;1.57;1.27;;;;;;;;;;5057224;27;87097;-54
2022/10/25 05:50:49;;;;;;;2.20;1.00;;;;;;;;;;5055250;27;88104;-55
2022/10/25 05:53:26;;;;;;;1.40;1.13;;;;;;;;;;5064114;27;88127;-54
2022/10/25 05:55:54;;;;;;;1.73;0.90;;;;;;;;;;5053914;27;87020;-54
2022/10/25 05:58:23;;;;;;;1.60;0.97;;;;;;;;;;5065024;27;86328;-55
2022/10/25 06:00:51;;;;;;;0.80;0.80;;;;;;;;;;5063436;27;89011;-52
2022/10/25 06:03:21;;;;;;;1.03;1.03;;;;;;;;;;5062448;27;88492;-53
2022/10/25 06:05:49;;;;;;;1.03;0.90;;;;;;;;;;5050923;27;88057;-53
2022/10/25 06:08:17;;;;;;;2.47;1.47;;;;;;;;;;5044382;28;86859;-52
2022/10/25 06:10:46;;;;;;;1.70;1.13;;;;;;;;;;5053742;27;88265;-53
2022/10/25 06:13:15;;;;;;;0.80;0.73;;;;;;;;;;5046122;27;88323;-53
2022/10/25 06:15:43;;;;;;;2.90;1.23;;;;;;;;;;5059329;27;86930;-55
2022/10/25 06:18:11;;;;;;;3.13;1.17;;;;;;;;;;5061659;27;87156;-55
2022/10/25 06:20:41;;;;;;;2.67;1.07;;;;;;;;;;5057628;27;89397;-54
2022/10/25 06:23:09;;;;;;;7.90;1.97;;;;;;;;;;5044597;27;87861;-55
2022/10/25 06:25:38;;;;;;;1.57;1.17;;;;;;;;;;5050067;27;89191;-53
2022/10/25 06:28:08;;;;;;;1.63;1.00;;;;;;;;;;5063727;27;87672;-53
2022/10/25 06:30:36;;;;;;;2.67;1.63;;;;;;;;;;5055172;27;89752;-54
2022/10/25 06:33:04;;;;;;;3.53;1.57;;;;;;;;;;5043980;27;89653;-55
2022/10/25 06:35:33;;;;;;;1.83;0.70;;;;;;;;;;5056072;27;88308;-54
2022/10/25 06:38:03;;;;;;;1.50;1.03;;;;;;;;;;5043848;27;87023;-54
2022/10/25 06:40:31;;;;;;;2.93;1.57;;;;;;;;;;5055706;27;88956;-54
2022/10/25 06:43:00;;;;;;;0.70;0.70;;;;;;;;;;5063482;27;87552;-55
2022/10/25 06:45:28;;;;;;;3.00;1.97;;;;;;;;;;5055264;27;87589;-57
2022/10/25 06:47:56;;;;;;;1.13;1.03;;;;;;;;;;5056113;27;86443;-54
2022/10/25 06:50:24;;;;;;;1.30;1.20;;;;;;;;;;5048465;27;87934;-57
2022/10/25 06:52:53;;;;;;;1.50;0.93;;;;;;;;;;5062872;27;88871;-54
2022/10/25 06:55:22;;;;;;;1.23;0.80;;;;;;;;;;5062444;27;87988;-54
2022/10/25 06:57:51;;;;;;;1.37;1.03;;;;;;;;;;5063723;27;87082;-53
2022/10/25 07:00:19;;;;;;;1.00;0.90;;;;;;;;;;5057108;27;89080;-56
2022/10/25 07:02:54;;;;;;;1.70;0.80;;;;;;;;;;5047992;27;88596;-52
2022/10/25 07:05:22;;;;;;;0.97;0.83;;;;;;;;;;5060695;27;87028;-53
2022/10/25 07:07:50;;;;;;;1.33;0.87;;;;;;;;;;5043217;28;86899;-53
2022/10/25 07:10:19;;;;;;;1.83;0.97;;;;;;;;;;5057430;27;88960;-54
2022/10/25 07:12:48;;;;;;;1.73;0.90;;;;;;;;;;5057500;27;88922;-53
2022/10/25 07:15:17;;;;;;;1.37;0.80;;;;;;;;;;5043241;27;86941;-53
2022/10/25 07:17:50;;;;;;;1.27;0.90;;;;;;;;;;5057886;27;88596;-53
2022/10/25 07:20:18;;;;;;;0.60;0.60;;;;;;;;;;5045434;27;88840;-53
2022/10/25 07:22:48;;;;;;;2.27;0.90;;;;;;;;;;5054105;27;89684;-53
2022/10/25 07:25:16;;;;;;;0.93;0.80;;;;;;;;;;5055293;27;87122;-54
2022/10/25 07:27:44;;;;;;;1.60;1.03;;;;;;;;;;5058606;27;86908;-53
2022/10/25 07:30:14;;;;;;;4.60;1.03;;;;;;;;;;5048976;27;87846;-53
2022/10/25 07:32:43;;;;;;;0.63;0.63;;;;;;;;;;5057079;27;88562;-55
2022/10/25 07:35:11;;;;;;;2.13;0.73;;;;;;;;;;5043900;27;86910;-54
2022/10/25 07:37:39;;;;;;;1.43;0.70;;;;;;;;;;5043896;27;86252;-54
2022/10/25 07:40:08;;;;;;;1.60;1.00;;;;;;;;;;5056576;27;87942;-54
2022/10/25 07:42:36;;;;;;;1.43;0.73;;;;;;;;;;5062614;27;87786;-57
2022/10/25 07:45:05;;;;;;;1.30;0.90;;;;;;;;;;5060532;27;88910;-55
2022/10/25 07:47:35;;;;;;;0.77;0.77;;;;;;;;;;5051480;27;87035;-55
2022/10/25 07:50:03;;;;;;;0.77;0.70;;;;;;;;;;5057140;27;88006;-54
2022/10/25 07:52:31;;;;;;;0.97;0.80;;;;;;;;;;5055801;27;88799;-54
2022/10/25 07:55:00;;;;;;;1.03;0.80;;;;;;;;;;5050391;27;86933;-55
2022/10/25 07:57:28;;;;;;;1.07;0.97;;;;;;;;;;5055662;27;87200;-54
2022/10/25 07:59:57;;;;;;;2.43;1.10;;;;;;;;;;5062598;27;88219;-54
2022/10/25 08:02:25;;;;;;;1.17;0.70;;;;;;;;;;5063002;27;89086;-54
2022/10/25 08:04:54;;;;;;;0.73;0.60;;;;;;;;;;5063210;27;86912;-54
2022/10/25 08:07:23;;;;;;;1.30;0.83;;;;;;;;;;5056876;27;87122;-55
2022/10/25 08:09:51;;;;;;;1.13;1.00;;;;;;;;;;5059004;27;87936;-54
2022/10/25 08:12:19;;;;;;;0.97;0.80;;;;;;;;;;5042498;28;88794;-55
2022/10/25 08:14:49;;;;;;;0.70;0.70;;;;;;;;;;5047289;27;87065;-54
2022/10/25 08:17:18;;;;;;;1.57;1.00;;;;;;;;;;5062326;27;86863;-54
2022/10/25 08:19:46;;;;;;;3.40;0.90;;;;;;;;;;5061492;27;89167;-55
2022/10/25 08:22:19;;;;;;;0.60;0.60;;;;;;;;;;5061824;27;88942;-53
2022/10/25 08:24:48;;;;;;;6.70;1.07;;;;;;;;;;5062040;27;87056;-54
2022/10/25 08:27:16;;;;;;;0.50;0.50;;;;;;;;;;5062841;27;86136;-54
2022/10/25 08:29:44;;;;;;;1.37;0.73;;;;;;;;;;5061824;27;87979;-55
2022/10/25 08:32:13;;;;;;;0.77;0.70;;;;;;;;;;5061642;27;89131;-55
2022/10/25 08:34:41;;;;;;;1.30;0.90;;;;;;;;;;5061988;27;87765;-55
2022/10/25 08:37:10;;;;;;;6.77;1.00;;;;;;;;;;5062154;27;86956;-55
2022/10/25 08:39:40;;;;;;;0.97;0.73;;;;;;;;;;5062273;27;88904;-54
2022/10/25 08:42:11;;;;;;;0.67;0.60;;;;;;;;;;5062110;27;88809;-55
2022/10/25 08:44:43;;;;;;;1.27;1.00;;;;;;;;;;5061797;27;86997;-55
2022/10/25 08:47:12;;;;;;;0.77;0.70;;;;;;;;;;5042017;28;86897;-54
2022/10/25 08:49:43;;;;;;;1.17;0.80;;;;;;;;;;5059436;27;88296;-54
2022/10/25 08:52:14;;;;;;;0.80;0.70;;;;;;;;;;5062352;27;88403;-55
2022/10/25 08:54:46;;;;;;;0.53;0.53;;;;;;;;;;5062319;27;86880;-54
2022/10/25 08:57:22;;;;;;;1.40;0.63;;;;;;;;;;5061546;27;87159;-55
2022/10/25 08:59:51;;;;;;;1.57;0.90;;;;;;;;;;5065420;27;89607;-55
2022/10/25 09:02:21;;;;;;;1.37;1.10;;;;;;;;;;5061259;27;88376;-55
2022/10/25 09:04:50;;;;;;;2.33;0.50;;;;;;;;;;5062262;27;87071;-54
2022/10/25 09:07:39;;;;;;;1.70;0.83;;;;;;;;;;5061492;27;87105;-54
2022/10/25 09:10:13;;;;;;;0.60;0.60;;;;;;;;;;5036611;27;87105;-55
2022/10/25 09:12:43;;;;;;;4.13;0.90;;;;;;;;;;5061222;27;87927;-54
2022/10/25 09:15:13;;;;;;;0.83;0.70;;;;;;;;;;5028293;27;87022;-55
2022/10/25 09:17:44;;;;;;;1.20;0.80;;;;;;;;;;5003866;28;86316;-55
2022/10/25 09:20:16;;;;;;;3.50;0.90;;;;;;;;;;5004627;28;88228;-54
2022/10/25 09:22:45;;;;;;;0.60;0.50;;;;;;;;;;5004736;28;88081;-55
2022/10/25 09:25:17;;;;;;;1.27;0.93;;;;;;;;;;5004166;28;87932;-53
2022/10/25 09:27:47;;;;;;;1.67;1.10;;;;;;;;;;5004450;28;87531;-55
2022/10/25 09:30:17;;;;;;;0.63;0.50;;;;;;;;;;5004586;28;89217;-54
2022/10/25 09:32:46;;;;;;;0.83;0.60;;;;;;;;;;5020884;28;87738;-55
2022/10/25 09:35:15;;;;;;;1.13;0.93;;;;;;;;;;5024682;28;87074;-55
2022/10/25 09:37:44;;;;;;;0.97;0.87;;;;;;;;;;5024328;28;87139;-55
2022/10/25 09:40:14;;;;;;;2.90;0.70;;;;;;;;;;5023941;28;88052;-54
2022/10/25 09:42:45;;;;;;;0.80;0.80;;;;;;;;;;5023892;28;86707;-54
2022/10/25 09:45:17;;;;;;;2.10;0.80;;;;;;;;;;5019377;28;86922;-54
2022/10/25 09:47:46;;;;;;;1.57;0.60;;;;;;;;;;5004434;28;87089;-56
2022/10/25 09:50:16;;;;;;;1.00;0.70;;;;;;;;;;5003795;28;90157;-54
2022/10/25 09:52:46;;;;;;;2.27;0.83;;;;;;;;;;5004202;28;89584;-58
2022/10/25 09:55:20;;;;;;;0.97;0.70;;;;;;;;;;5004135;28;86847;-55
2022/10/25 09:57:50;;;;;;;0.87;0.63;;;;;;;;;;5004301;28;88016;-54
2022/10/25 10:00:18;;;;;;;0.67;0.67;;;;;;;;;;5011130;28;89130;-55
2022/10/25 10:02:47;;;;;;;3.07;0.60;;;;;;;;;;5014695;28;88681;-54
2022/10/25 10:05:15;;;;;;;0.77;0.77;;;;;;;;;;5004395;28;86864;-54
2022/10/25 10:07:43;;;;;;;1.23;0.77;;;;;;;;;;5004164;28;86161;-54
2022/10/25 10:10:13;;;;;;;1.53;0.60;;;;;;;;;;5003933;28;88143;-54
2022/10/25 10:12:42;;;;;;;0.67;0.67;;;;;;;;;;5004464;28;88342;-55
2022/10/25 10:15:15;;;;;;;0.70;0.70;;;;;;;;;;5045486;27;88026;-55
2022/10/25 10:17:43;;;;;;;0.40;0.40;;;;;;;;;;5064499;27;87043;-55
2022/10/25 10:20:13;;;;;;;0.97;0.80;;;;;;;;;;5063309;27;87995;-55
2022/10/25 10:22:45;;;;;;;1.93;0.70;;;;;;;;;;5063515;27;87766;-54
2022/10/25 10:25:16;;;;;;;1.70;1.13;;;;;;;;;;5064427;27;87117;-55
2022/10/25 10:27:44;;;;;;;0.60;0.57;;;;;;;;;;5063298;27;87154;-55
2022/10/25 10:30:21;;;;;;;0.50;0.50;;;;;;;;;;5063950;27;88389;-55
2022/10/25 10:32:52;;;;;;;0.57;0.40;;;;;;;;;;5064126;27;87657;-55
2022/10/25 10:35:28;;;;;;;1.97;1.40;;;;;;;;;;5064327;27;87019;-52
2022/10/25 10:38:20;;;;;;;1.50;0.80;;;;;;;;;;5064291;27;87126;-54
2022/10/25 10:40:48;;;;;;;0.60;0.60;;;;;;;;;;5057393;27;87977;-54
2022/10/25 10:43:29;;;;;;;1.17;1.00;;;;;;;;;;5049180;27;88788;-53
2022/10/25 10:46:01;;;;;;;1.30;0.90;;;;;;;;;;5050785;27;86947;-55
2022/10/25 10:48:32;;;;;;;1.30;0.90;;;;;;;;;;5047127;27;87109;-54
2022/10/25 10:51:00;;;;;;;1.73;0.87;;;;;;;;;;5063251;27;88571;-54
2022/10/25 10:53:31;;;;;;;0.97;0.83;;;;;;;;;;5063445;27;87375;-55
2022/10/25 10:55:59;;;;;;;9.83;1.17;;;;;;;;;;5063472;27;87015;-55
2022/10/25 10:58:28;;;;;;;0.90;0.73;;;;;;;;;;5048400;27;86110;-54
2022/10/25 11:00:57;;;;;;;0.97;0.50;;;;;;;;;;5054606;27;88096;-55
2022/10/25 11:03:36;;;;;;;1.00;1.00;;;;;;;;;;5063871;27;86941;-56
2022/10/25 11:06:06;;;;;;;2.10;1.30;;;;;;;;;;5063059;27;87674;-53
2022/10/25 11:08:34;;;;;;;6.70;0.90;;;;;;;;;;5063772;27;87049;-54
2022/10/25 11:11:15;;;;;;;1.00;0.90;;;;;;;;;;5045443;27;87942;-53
2022/10/25 11:13:48;;;;;;;1.13;1.03;;;;;;;;;;5055454;27;89200;-55
2022/10/25 11:16:20;;;;;;;1.23;0.90;;;;;;;;;;5061560;27;87023;-56
2022/10/25 11:19:02;;;;;;;2.20;1.20;;;;;;;;;;5055256;27;87031;-56
2022/10/25 11:21:37;;;;;;;1.70;1.33;;;;;;;;;;5059124;27;87040;-56
2022/10/25 11:24:08;;;;;;;3.60;1.10;;;;;;;;;;5062071;27;87563;-56
2022/10/25 11:26:41;;;;;;;1.27;0.90;;;;;;;;;;5062772;27;87114;-56
2022/10/25 11:29:11;;;;;;;2.00;1.17;;;;;;;;;;5063261;27;87023;-56
2022/10/25 11:31:44;;;;;;;1.90;1.10;;;;;;;;;;5062624;27;89062;-56
2022/10/25 11:34:16;;;;;;;4.30;1.37;;;;;;;;;;5063048;27;88195;-56
2022/10/25 11:36:48;;;;;;;2.83;1.53;;;;;;;;;;5063074;27;86939;-56
2022/10/25 11:39:23;;;;;;;1.67;0.90;;;;;;;;;;5062492;27;87031;-56
2022/10/25 11:41:52;;;;;;;2.43;0.90;;;;;;;;;;5063075;27;89115;-56
2022/10/25 11:44:25;;;;;;;2.83;1.10;;;;;;;;;;5062121;27;87606;-56
2022/10/25 11:46:54;;;;;;;1.20;0.67;;;;;;;;;;5062925;27;86828;-56
2022/10/25 11:49:36;;;;;;;2.57;1.00;;;;;;;;;;5063151;27;86238;-56
2022/10/25 11:52:12;;;;;;;2.23;0.90;;;;;;;;;;5063109;27;88151;-56
2022/10/25 11:54:46;;;;;;;2.87;1.20;;;;;;;;;;5062648;27;87465;-56
2022/10/25 11:57:15;;;;;;;1.03;0.93;;;;;;;;;;5062343;27;87747;-56
2022/10/25 11:59:50;;;;;;;2.40;0.80;;;;;;;;;;5063313;27;87007;-56
2022/10/25 12:02:25;;;;;;;0.80;0.70;;;;;;;;;;5063000;27;87019;-56
2022/10/25 12:04:57;;;;;;;1.60;0.70;;;;;;;;;;5062514;27;87730;-56
2022/10/25 12:07:26;;;;;;;1.60;1.07;;;;;;;;;;5063091;27;87089;-56
2022/10/25 12:09:58;;;;;;;1.03;0.70;;;;;;;;;;5062313;27;86898;-56
2022/10/25 12:12:27;;;;;;;2.03;0.73;;;;;;;;;;5063069;27;88932;-56
2022/10/25 12:14:56;;;;;;;0.73;0.57;;;;;;;;;;5062097;27;88751;-56
2022/10/25 12:17:25;;;;;;;0.70;0.70;;;;;;;;;;5062842;27;86978;-56
2022/10/25 12:19:53;;;;;;;1.13;1.03;;;;;;;;;;5062341;27;87043;-56
2022/10/25 12:22:24;;;;;;;1.03;0.40;;;;;;;;;;5062263;27;89264;-56
2022/10/25 12:24:53;;;;;;;0.60;0.60;;;;;;;;;;5062427;27;87319;-56
2022/10/25 12:27:22;;;;;;;1.00;0.90;;;;;;;;;;5062556;27;87057;-56
2022/10/25 12:29:51;;;;;;;0.87;0.87;;;;;;;;;;5062998;27;86956;-56
2022/10/25 12:32:21;;;;;;;0.87;0.57;;;;;;;;;;5062533;27;89167;-56
2022/10/25 12:34:50;;;;;;;2.07;1.17;;;;;;;;;;5062099;27;88633;-56
2022/10/25 12:37:19;;;;;;;0.80;0.73;;;;;;;;;;5062270;27;86893;-56
2022/10/25 12:39:50;;;;;;;0.93;0.80;;;;;;;;;;5062333;27;86198;-57
2022/10/25 12:42:19;;;;;;;1.00;0.90;;;;;;;;;;5061954;27;88860;-56
2022/10/25 12:44:52;;;;;;;1.03;0.80;;;;;;;;;;5061997;27;88713;-56
2022/10/25 12:47:23;;;;;;;1.17;0.70;;;;;;;;;;5061956;27;87838;-56
2022/10/25 12:50:04;;;;;;;1.07;0.80;;;;;;;;;;5061987;27;87062;-56
2022/10/25 12:52:33;;;;;;;1.87;1.23;;;;;;;;;;5060882;27;88079;-57
2022/10/25 12:55:22;;;;;;;3.37;1.23;;;;;;;;;;5062129;27;87667;-56
2022/10/25 12:57:55;;;;;;;1.27;0.60;;;;;;;;;;5037025;27;87057;-56
2022/10/25 13:00:23;;;;;;;0.53;0.53;;;;;;;;;;5062496;27;86960;-56
2022/10/25 13:03:12;;;;;;;0.73;0.73;;;;;;;;;;5061753;27;88263;-56
2022/10/25 13:06:02;;;;;;;0.37;0.30;;;;;;;;;;5061984;27;88764;-56
2022/10/25 13:08:30;;;;;;;0.70;0.40;;;;;;;;;;5062047;27;87097;-56
2022/10/25 13:10:59;;;;;;;0.83;0.63;;;;;;;;;;5061456;27;86963;-56
2022/10/25 13:13:29;;;;;;;0.57;0.47;;;;;;;;;;5061061;27;88644;-56
2022/10/25 13:15:58;;;;;;;2.37;0.77;;;;;;;;;;5061605;27;89656;-56
2022/10/25 13:18:28;;;;;;;4.83;0.60;;;;;;;;;;5062338;27;86978;-56
2022/10/25 13:20:56;;;;;;;2.63;0.83;;;;;;;;;;5061210;27;87021;-56
2022/10/25 13:23:44;;;;;;;0.90;0.60;;;;;;;;;;5061937;27;89161;-56
2022/10/25 13:26:13;;;;;;;0.50;0.50;;;;;;;;;;5061407;27;87667;-57
2022/10/25 13:28:45;;;;;;;0.60;0.50;;;;;;;;;;5061789;27;86851;-56
2022/10/25 13:31:42;;;;;;;0.80;0.80;;;;;;;;;;5061979;27;86291;-56
2022/10/25 13:34:29;;;;;;;0.50;0.50;;;;;;;;;;5061283;27;89580;-56
2022/10/25 13:36:58;;;;;;;0.63;0.60;;;;;;;;;;5061876;27;87954;-56
2022/10/25 13:39:27;;;;;;;3.00;0.70;;;;;;;;;;5061145;27;87776;-56
2022/10/25 13:41:55;;;;;;;1.33;0.40;;;;;;;;;;5061791;27;86967;-56
2022/10/25 13:44:26;;;;;;;0.67;0.63;;;;;;;;;;5060698;27;87895;-56
2022/10/25 13:46:55;;;;;;;0.40;0.40;;;;;;;;;;5061759;27;87909;-57
2022/10/25 13:49:28;;;;;;;1.07;0.77;;;;;;;;;;5061264;27;87081;-56
2022/10/25 13:51:57;;;;;;;0.77;0.70;;;;;;;;;;5061528;27;86914;-56
2022/10/25 13:54:25;;;;;;;1.60;0.87;;;;;;;;;;5061095;27;87040;-56
2022/10/25 13:56:53;;;;;;;0.40;0.40;;;;;;;;;;5061805;27;87858;-56
2022/10/25 13:59:59;;;;;;;1.00;0.60;;;;;;;;;;5061687;27;87068;-56
2022/10/25 14:02:27;;;;;;;0.40;0.40;;;;;;;;;;5062343;27;86847;-56
2022/10/25 14:04:56;;;;;;;0.33;0.33;;;;;;;;;;5063871;27;90796;-56
2022/10/25 14:07:43;;;;;;;0.77;0.77;;;;;;;;;;5064487;27;92640;-56
2022/10/25 14:10:16;;;;;;;0.83;0.73;;;;;;;;;;5064629;27;87024;-56
2022/10/25 14:12:48;;;;;;;0.50;0.50;;;;;;;;;;5064563;27;87042;-56
2022/10/25 14:15:21;;;;;;;1.27;0.37;;;;;;;;;;5064845;27;88922;-56
2022/10/25 14:17:49;;;;;;;2.83;0.53;;;;;;;;;;5063764;27;89752;-56
2022/10/25 14:20:21;;;;;;;1.57;0.80;;;;;;;;;;5064004;27;88009;-56
2022/10/25 14:22:51;;;;;;;0.60;0.60;;;;;;;;;;5064346;27;86454;-56
2022/10/25 14:25:20;;;;;;;0.50;0.50;;;;;;;;;;5064216;27;88122;-56
2022/10/25 14:27:48;;;;;;;2.50;0.93;;;;;;;;;;5064369;27;88653;-55
2022/10/25 14:30:25;;;;;;;0.60;0.60;;;;;;;;;;5063586;27;88065;-56
2022/10/25 14:32:54;;;;;;;1.33;0.63;;;;;;;;;;5064437;27;87076;-56
2022/10/25 14:35:23;;;;;;;0.63;0.63;;;;;;;;;;5064484;27;87752;-56
2022/10/25 14:37:51;;;;;;;2.30;0.93;;;;;;;;;;5064303;27;87810;-56
2022/10/25 14:40:20;;;;;;;0.53;0.53;;;;;;;;;;5064238;27;86787;-56
2022/10/25 14:42:48;;;;;;;1.80;0.43;;;;;;;;;;5063988;27;87010;-56
2022/10/25 14:45:19;;;;;;;2.23;0.70;;;;;;;;;;5058471;27;88034;-56
2022/10/25 14:47:49;;;;;;;1.00;0.53;;;;;;;;;;5062944;27;87843;-56
2022/10/25 14:50:17;;;;;;;0.73;0.73;;;;;;;;;;5063937;27;86847;-55
2022/10/25 14:52:45;;;;;;;0.83;0.80;;;;;;;;;;5064101;27;86917;-56
2022/10/25 14:55:17;;;;;;;0.67;0.40;;;;;;;;;;5062996;27;89838;-55
2022/10/25 14:57:45;;;;;;;0.60;0.60;;;;;;;;;;5063538;27;87806;-56
2022/10/25 15:00:18;;;;;;;0.87;0.77;;;;;;;;;;5064114;27;87144;-55
2022/10/25 15:02:46;;;;;;;2.03;0.80;;;;;;;;;;5064104;27;87068;-56
2022/10/25 15:05:17;;;;;;;0.70;0.70;;;;;;;;;;5063241;27;88248;-56
2022/10/25 15:07:45;;;;;;;0.87;0.70;;;;;;;;;;5063126;27;88584;-56